Time;durP1;ratioP1;P1;durP2;ratioP2;P2;SDS_P1;SDS_P2;PMS_P1;PMS_P2;Temp;Humidity;BMP_temperature;BMP_pressure;BME280_temperature;BME280_humidity;BME280_pressure;Samples;Min_cycle;Max_cycle;Signal;HPM_P1;HPM_P2
2022/02/04 00:28:16;;;;;;;66.10;27.10;;;;;;;0.33;74.65;98854.90;25077;1315;3051820;-72
2022/02/04 00:30:57;;;;;;;66.90;26.60;;;;;;;0.03;75.05;98856.77;25130;1312;3053622;-69
2022/02/04 00:33:30;;;;;;;60.70;23.60;;;;;;;-0.16;75.66;98858.30;25146;1312;3050475;-68
2022/02/04 00:36:09;;;;;;;65.80;24.90;;;;;;;-0.29;76.08;98857.77;25114;1312;3026118;-66
2022/02/04 00:38:42;;;;;;;59.90;24.50;;;;;;;-0.39;76.37;98851.16;25127;1315;3052201;-70
2022/02/04 00:41:14;;;;;;;64.70;22.80;;;;;;;-0.43;77.18;98864.84;25150;1315;3026802;-71
2022/02/04 00:43:44;;;;;;;54.50;24.80;;;;;;;0.18;75.62;98853.57;25128;1315;3026451;-69
2022/02/04 00:46:17;;;;;;;50.90;23.30;;;;;;;0.45;74.00;98850.40;25135;1312;3027438;-69
2022/02/04 01:13:41;;;;;;;46.90;16.60;;;;;;;-0.14;74.70;98877.20;25193;1315;3054103;-69
2022/02/04 01:27:21;;;;;;;44.00;19.40;;;;;;;-0.28;76.13;98884.79;25080;1316;3051674;-68
2022/02/04 01:30:02;;;;;;;68.20;26.30;;;;;;;0.07;74.34;98891.09;25098;1315;3026934;-69
2022/02/04 01:32:31;;;;;;;63.30;26.30;;;;;;;0.11;73.73;98885.65;25192;1314;3052980;-69
2022/02/04 01:35:00;;;;;;;63.70;26.40;;;;;;;0.03;73.50;98888.79;25182;1315;3030229;-67
2022/02/04 01:37:30;;;;;;;52.30;21.00;;;;;;;-0.12;73.61;98894.70;25159;1313;3026740;-66
2022/02/04 01:39:59;;;;;;;54.40;21.20;;;;;;;-0.27;74.15;98895.95;25151;1316;3026143;-65
2022/02/04 01:42:28;;;;;;;62.40;24.60;;;;;;;-0.55;75.07;98898.36;25098;1313;3027824;-66
2022/02/04 01:44:57;;;;;;;67.20;28.30;;;;;;;-0.76;75.63;98904.86;25200;1314;3058778;-68
2022/02/04 01:47:26;;;;;;;61.70;24.80;;;;;;;-0.87;76.16;98905.13;25426;1313;3026250;-69
2022/02/04 01:49:55;;;;;;;53.20;19.30;;;;;;;-0.85;76.30;98906.45;25427;1314;3051227;-67
2022/02/04 01:52:23;;;;;;;46.40;20.00;;;;;;;-0.22;75.14;98898.05;25290;1313;3026437;-70
2022/02/04 01:54:52;;;;;;;63.10;25.30;;;;;;;0.42;72.50;98891.33;25344;1315;3051765;-70
2022/02/04 01:57:21;;;;;;;76.50;30.20;;;;;;;0.31;71.76;98897.66;25169;1315;3026314;-71
2022/02/04 01:59:50;;;;;;;73.80;28.40;;;;;;;0.08;72.55;98894.34;25101;1315;3050659;-70
2022/02/04 02:02:19;;;;;;;83.80;29.40;;;;;;;-0.13;73.23;98898.85;25166;1313;3028838;-67
2022/02/04 02:04:48;;;;;;;86.60;31.40;;;;;;;-0.39;73.43;98910.86;25069;1313;3071183;-69
2022/02/04 02:07:21;;;;;;;80.00;30.90;;;;;;;-0.60;74.51;98905.89;25124;1315;3030539;-68
2022/02/04 02:09:58;;;;;;;94.50;34.90;;;;;;;-0.59;74.16;98902.56;25136;1316;3050622;-68
2022/02/04 02:12:34;;;;;;;87.10;29.60;;;;;;;-0.65;74.99;98901.88;25121;1316;3073094;-71
2022/02/04 02:42:47;;;;;;;69.30;26.20;;;;;;;-0.87;75.01;98907.88;25122;1316;3026542;-65
2022/02/04 02:45:48;;;;;;;64.70;24.70;;;;;;;-0.87;74.67;98912.17;25084;1313;3057751;-69
2022/02/04 02:54:06;;;;;;;53.00;22.60;;;;;;;0.06;71.77;98905.08;25119;1315;3053568;-71
2022/02/04 02:59:13;;;;;;;77.60;25.60;;;;;;;-0.15;72.12;98904.58;25174;1315;3026733;-65
2022/02/04 03:01:46;;;;;;;75.00;27.30;;;;;;;-0.15;72.47;98896.01;25176;1313;3051323;-68
2022/02/04 03:04:17;;;;;;;69.80;26.10;;;;;;;-0.47;73.26;98904.68;25128;1315;3052923;-70
2022/02/04 03:06:46;;;;;;;84.60;28.00;;;;;;;-0.66;73.70;98902.92;25096;1315;3026909;-66
2022/02/04 03:09:18;;;;;;;85.50;28.50;;;;;;;-0.90;74.44;98905.38;25115;1312;3027250;-67
2022/02/04 03:11:46;;;;;;;86.80;30.40;;;;;;;-1.12;75.38;98902.77;25192;1313;3026995;-69
2022/02/04 03:14:15;;;;;;;74.50;29.20;;;;;;;-1.12;75.53;98896.24;25119;1312;3059942;-68
2022/02/04 03:16:45;;;;;;;68.50;25.30;;;;;;;-1.24;76.08;98905.60;25088;1315;3026479;-69
2022/02/04 03:19:15;;;;;;;48.60;20.50;;;;;;;-0.70;74.73;98897.17;25070;1312;3026797;-72
2022/02/04 03:21:46;;;;;;;48.80;20.70;;;;;;;-0.18;72.73;98893.80;25107;1315;3026252;-65
2022/02/04 03:24:19;;;;;;;44.40;19.00;;;;;;;-0.47;72.44;98906.06;25126;1315;3026942;-65
2022/02/04 03:26:54;;;;;;;45.60;19.20;;;;;;;-0.69;73.14;98915.38;25118;1312;3048082;-71
2022/02/04 03:29:46;;;;;;;47.70;19.80;;;;;;;-0.82;73.70;98906.40;25100;1315;3053609;-67
2022/02/04 03:32:19;;;;;;;42.30;18.10;;;;;;;-0.89;73.82;98910.33;25133;1315;3054654;-68
2022/02/04 03:34:48;;;;;;;44.60;19.90;;;;;;;-1.07;74.38;98912.63;25162;1313;3027542;-68
2022/02/04 03:37:17;;;;;;;51.10;21.90;;;;;;;-1.24;74.95;98908.53;25114;1316;3026557;-69
2022/02/04 03:39:46;;;;;;;34.90;15.30;;;;;;;-1.35;75.55;98911.16;25123;1313;3050577;-68
2022/02/04 03:42:15;;;;;;;50.50;19.50;;;;;;;-1.38;75.51;98913.63;25100;1312;3027161;-68
2022/02/04 03:44:44;;;;;;;32.20;14.40;;;;;;;-1.51;76.16;98918.36;25129;1315;3026109;-69
2022/02/04 03:47:14;;;;;;;45.80;20.60;;;;;;;-0.74;74.72;98916.68;25105;1312;3053088;-68
2022/02/04 03:49:43;;;;;;;44.80;19.70;;;;;;;-0.28;72.96;98911.61;25189;1315;3026631;-70
2022/02/04 03:52:12;;;;;;;61.30;25.50;;;;;;;-0.52;72.76;98920.64;25148;1315;3026404;-68
2022/02/04 03:54:41;;;;;;;60.80;22.80;;;;;;;-0.59;73.19;98920.81;25119;1313;3050719;-70
2022/02/04 03:57:10;;;;;;;59.10;24.90;;;;;;;-0.80;73.20;98925.27;25102;1315;3026496;-67
2022/02/04 03:59:39;;;;;;;48.40;20.40;;;;;;;-1.04;73.74;98930.78;25098;1313;3054394;-69
2022/02/04 04:02:08;;;;;;;47.40;20.80;;;;;;;-1.37;74.86;98931.82;25170;1313;3026757;-66
2022/02/04 04:04:37;;;;;;;38.50;16.80;;;;;;;-1.42;75.16;98919.21;25118;1315;3026346;-67
2022/02/04 04:07:06;;;;;;;43.10;18.50;;;;;;;-1.45;74.90;98928.20;25084;1315;3054693;-65
2022/02/04 04:09:39;;;;;;;48.70;20.30;;;;;;;-1.45;74.58;98926.49;25083;1313;3026712;-68
2022/02/04 04:12:09;;;;;;;36.30;15.60;;;;;;;-1.50;75.36;98926.94;25128;1315;3048635;-71
2022/02/04 04:14:41;;;;;;;38.90;18.10;;;;;;;-0.89;73.46;98926.67;25168;1314;3026805;-66
2022/02/04 04:17:10;;;;;;;39.90;17.80;;;;;;;-0.31;71.44;98925.98;25149;1315;3030168;-64
2022/02/04 04:19:39;;;;;;;32.90;16.80;;;;;;;-0.42;71.16;98943.98;25151;1313;3026815;-68
2022/02/04 04:22:08;;;;;;;33.30;16.80;;;;;;;-0.70;71.53;98938.10;25074;1315;3051532;-69
2022/02/04 04:24:37;;;;;;;47.10;19.40;;;;;;;-0.84;71.97;98934.83;25154;1315;3026535;-70
2022/02/04 04:27:06;;;;;;;47.70;19.00;;;;;;;-1.01;72.73;98941.71;25178;1313;3050847;-69
2022/02/04 04:29:35;;;;;;;48.20;20.40;;;;;;;-0.98;72.78;98939.76;25144;1315;3026447;-67
2022/02/04 04:32:05;;;;;;;53.00;22.00;;;;;;;-1.04;72.89;98942.29;25056;1313;3027189;-70
2022/02/04 04:34:34;;;;;;;65.90;25.80;;;;;;;-1.18;73.63;98942.25;25133;1313;3051940;-69
2022/02/04 04:37:04;;;;;;;59.40;25.10;;;;;;;-1.34;74.40;98944.83;25088;1313;3026507;-70
2022/02/04 04:39:44;;;;;;;50.70;20.60;;;;;;;-1.32;74.18;98955.44;25132;1313;3026700;-66
2022/02/04 04:42:15;;;;;;;50.70;20.20;;;;;;;-1.47;74.73;98957.10;25137;1315;3056273;-70
2022/02/04 05:29:05;;;;;;;45.00;21.10;;;;;;;-0.20;70.89;98972.73;25135;1313;3026788;-67
2022/02/04 05:31:34;;;;;;;51.30;20.50;;;;;;;-0.19;70.69;98970.95;25187;1313;3052655;-71
2022/02/04 05:34:03;;;;;;;50.90;20.10;;;;;;;-0.25;70.63;98968.01;25141;1313;3026514;-67
2022/02/04 05:36:36;;;;;;;48.00;19.80;;;;;;;-0.38;70.76;98971.09;25161;1313;3054733;-66
2022/02/04 05:39:05;;;;;;;55.80;22.10;;;;;;;-0.78;71.90;98978.71;25158;1315;3026546;-66
2022/02/04 05:41:38;;;;;;;56.10;21.30;;;;;;;-0.92;72.21;98984.52;25128;1315;3030213;-68
2022/02/04 05:44:11;;;;;;;45.80;19.50;;;;;;;-1.14;73.14;98982.40;25169;1313;3051467;-70
2022/02/04 05:46:50;;;;;;;45.80;18.60;;;;;;;-1.14;73.13;98981.17;25141;1315;3026353;-70
2022/02/04 05:49:22;;;;;;;49.50;18.50;;;;;;;-1.18;73.12;98986.27;25124;1314;3056803;-71
2022/02/04 05:52:07;;;;;;;49.60;20.10;;;;;;;-1.25;73.50;98987.77;25182;1315;3029127;-69
2022/02/04 05:57:14;;;;;;;65.10;24.00;;;;;;;-1.41;74.11;98992.38;25180;1315;3026875;-72
2022/02/04 06:00:12;;;;;;;60.60;21.70;;;;;;;-1.29;74.01;98995.77;25160;1315;3053132;-70
2022/02/04 06:22:23;;;;;;;75.20;26.80;;;;;;;-0.59;71.03;98996.69;25091;1315;3048845;-72
2022/02/04 06:24:53;;;;;;;76.60;29.10;;;;;;;-0.61;71.11;98995.50;25119;1315;3053009;-68
2022/02/04 06:27:25;;;;;;;72.50;27.40;;;;;;;-0.88;71.76;98996.30;25114;1315;3026624;-69
2022/02/04 06:29:55;;;;;;;49.20;19.10;;;;;;;-1.00;72.25;98999.97;25148;1313;3028592;-68
2022/02/04 06:32:25;;;;;;;57.20;21.80;;;;;;;-1.34;73.26;99006.70;25092;1315;3027684;-68
2022/02/04 06:34:53;;;;;;;51.30;20.20;;;;;;;-1.49;74.37;99000.25;25135;1315;3030393;-70
2022/02/04 06:37:23;;;;;;;65.60;24.20;;;;;;;-1.47;74.24;99005.40;25177;1315;3073417;-66
2022/02/04 06:39:52;;;;;;;61.90;25.10;;;;;;;-1.36;74.25;99006.02;25147;1315;3026404;-69
2022/02/04 06:42:22;;;;;;;64.80;25.00;;;;;;;-1.26;73.70;99003.61;25178;1315;3050939;-69
2022/02/04 06:44:51;;;;;;;63.30;24.10;;;;;;;-1.19;73.47;98999.00;25181;1312;3026890;-68
2022/02/04 06:47:20;;;;;;;56.50;22.40;;;;;;;-1.27;73.78;99002.59;25195;1312;3029918;-69
2022/02/04 06:49:49;;;;;;;66.00;24.70;;;;;;;-1.34;73.81;99006.52;25117;1312;3053160;-70
2022/02/04 06:52:18;;;;;;;60.70;21.50;;;;;;;-1.51;74.34;99004.44;25192;1313;3027738;-69
2022/02/04 06:54:47;;;;;;;63.70;25.60;;;;;;;-1.03;73.29;99002.28;25152;1312;3051996;-68
2022/02/04 06:57:16;;;;;;;58.70;22.10;;;;;;;-0.41;71.53;98998.84;25184;1312;3026375;-70
2022/02/04 06:59:47;;;;;;;67.90;25.70;;;;;;;-0.48;70.84;98998.83;25130;1312;3048472;-69
2022/02/04 07:02:15;;;;;;;69.20;26.30;;;;;;;-0.61;71.09;98993.81;25131;1312;3027454;-70
2022/02/04 07:04:44;;;;;;;71.50;28.50;;;;;;;-0.92;71.82;98996.38;25170;1312;3026639;-70
2022/02/04 07:07:15;;;;;;;56.50;22.50;;;;;;;-1.01;72.14;98998.78;25118;1315;3053453;-70
2022/02/04 07:09:57;;;;;;;69.90;25.90;;;;;;;-1.33;73.22;99001.84;25196;1315;3026694;-68
2022/02/04 07:12:33;;;;;;;71.30;25.60;;;;;;;-1.33;73.35;98999.11;25130;1312;3050330;-71
2022/02/04 07:17:53;;;;;;;53.20;20.90;;;;;;;-1.27;73.24;99000.02;25135;1312;3026544;-70
2022/02/04 07:20:22;;;;;;;61.90;25.80;;;;;;;-1.57;74.00;99005.90;25160;1312;3052058;-71
2022/02/04 07:22:51;;;;;;;78.40;29.10;;;;;;;-1.87;74.84;99007.30;25151;1312;3026898;-72
2022/02/04 07:25:20;;;;;;;77.40;30.30;;;;;;;-1.79;75.16;99002.87;25149;1312;3048508;-69
2022/02/04 07:27:49;;;;;;;64.10;24.80;;;;;;;-1.69;74.28;99010.44;25127;1312;3029521;-71
2022/02/04 07:30:18;;;;;;;50.80;17.70;;;;;;;-1.67;74.51;99009.70;25158;1312;3070191;-67
2022/02/04 07:32:59;;;;;;;40.90;18.00;;;;;;;-1.08;73.49;99010.28;25131;1312;3027509;-69
2022/02/04 07:41:06;;;;;;;38.60;17.20;;;;;;;-0.70;70.32;99012.74;25197;1312;3057025;-72
2022/02/04 07:43:35;;;;;;;49.20;19.40;;;;;;;-1.03;71.19;99016.73;25136;1315;3026386;-72
2022/02/04 07:46:04;;;;;;;46.60;19.70;;;;;;;-1.00;71.60;99016.66;25138;1312;3026282;-73
2022/02/04 07:48:33;;;;;;;43.40;18.90;;;;;;;-1.27;72.55;99017.88;25218;1313;3055851;-71
2022/02/04 07:51:01;;;;;;;46.00;19.70;;;;;;;-1.42;72.95;99021.63;25114;1312;3029387;-71
2022/02/04 07:53:33;;;;;;;53.80;19.50;;;;;;;-1.46;72.94;99023.91;25132;1315;3053383;-70
2022/02/04 07:56:02;;;;;;;62.20;22.30;;;;;;;-1.52;73.14;99029.54;25113;1312;3027240;-70
2022/02/04 07:58:31;;;;;;;69.50;22.30;;;;;;;-1.66;73.65;99018.63;25126;1315;3027882;-71
2022/02/04 08:01:02;;;;;;;63.80;23.60;;;;;;;-1.67;73.99;99025.34;25133;1312;3026594;-71
2022/02/04 08:06:09;;;;;;;45.80;18.40;;;;;;;-1.79;74.60;99029.49;25146;1315;3027285;-70
2022/02/04 08:20:08;;;;;;;35.10;14.30;;;;;;;-1.04;71.27;99037.71;25156;1315;3026975;-69
2022/02/04 08:22:03;;;;;;;41.40;16.40;;;;;;;-1.28;71.71;99031.48;25118;1313;3052254;-70
2022/02/04 08:25:05;;;;;;;33.30;14.50;;;;;;;-1.28;72.04;99031.14;25175;1314;3053534;-66
2022/02/04 08:54:05;;;;;;;33.20;15.60;;;;;;;-1.92;74.50;99026.98;25184;1315;3026461;-69
2022/02/04 09:00:05;;;;;;;37.30;15.50;;;;;;;-0.80;70.89;99019.50;25139;1315;3050761;-72
2022/02/04 09:02:03;;;;;;;32.50;16.00;;;;;;;-1.08;70.31;99022.50;25173;1315;3051820;-70
2022/02/04 09:04:41;;;;;;;42.30;17.20;;;;;;;-1.02;70.65;99018.42;25145;1315;3026813;-67
2022/02/04 09:07:12;;;;;;;42.10;18.50;;;;;;;-0.99;70.30;99008.71;25191;1315;3068338;-68
2022/02/04 09:16:50;;;;;;;42.40;18.60;;;;;;;-1.41;72.03;99007.52;25173;1315;3026123;-71
2022/02/04 09:22:56;;;;;;;46.50;20.90;;;;;;;-1.81;72.76;98998.98;25147;1315;3027021;-67
2022/02/04 09:25:25;;;;;;;42.10;16.90;;;;;;;-1.71;72.76;98994.84;25222;1313;3048938;-68
2022/02/04 09:27:55;;;;;;;46.70;18.10;;;;;;;-1.71;72.40;98990.88;25177;1312;3026926;-72
2022/02/04 09:30:24;;;;;;;40.00;19.00;;;;;;;-1.76;72.61;98991.14;25129;1315;3026897;-72
2022/02/04 09:32:53;;;;;;;36.70;17.20;;;;;;;-1.84;72.79;98997.81;25206;1313;3026596;-70
2022/02/04 09:35:23;;;;;;;33.60;14.90;;;;;;;-1.94;72.90;98998.51;25155;1313;3054675;-71
2022/02/04 09:37:52;;;;;;;23.10;10.70;;;;;;;-2.06;73.47;98998.88;25142;1315;3030060;-71
2022/02/04 09:40:21;;;;;;;33.70;15.70;;;;;;;-1.62;72.74;98998.10;25149;1315;3026545;-71
2022/02/04 09:42:51;;;;;;;35.50;16.20;;;;;;;-1.24;71.38;98995.33;25171;1315;3027045;-71
2022/02/04 09:45:22;;;;;;;36.00;15.90;;;;;;;-1.06;70.39;99001.83;25188;1315;3026468;-71
2022/02/04 09:48:05;;;;;;;36.50;15.90;;;;;;;-1.33;70.88;98989.48;25114;1315;3056257;-71
2022/02/04 09:50:38;;;;;;;30.30;14.70;;;;;;;-1.35;71.17;98992.95;25179;1314;3051564;-69
2022/02/04 10:04:51;;;;;;;25.60;12.20;;;;;;;-1.98;72.79;98992.73;25123;1315;3052434;-71
2022/02/04 10:07:33;;;;;;;38.30;16.40;;;;;;;-2.11;73.78;98995.70;25169;1315;3052009;-72
2022/02/04 10:16:14;;;;;;;24.00;11.20;;;;;;;-2.02;74.05;98995.73;25238;1315;3053057;-70
2022/02/04 10:18:34;;;;;;;28.20;13.30;;;;;;;-1.49;72.49;98995.30;25276;1315;3051671;-69
2022/02/04 10:21:03;;;;;;;39.30;16.40;;;;;;;-1.02;70.57;98991.09;25172;1315;3071286;-68
2022/02/04 10:23:45;;;;;;;32.80;13.80;;;;;;;-1.09;70.62;98998.80;25229;1313;3026873;-73
2022/02/04 10:26:15;;;;;;;38.10;16.00;;;;;;;-1.26;70.79;98996.73;25156;1315;3052241;-68
2022/02/04 10:28:44;;;;;;;31.10;14.50;;;;;;;-1.38;71.16;99003.33;25179;1315;3026390;-68
2022/02/04 10:31:21;;;;;;;33.90;15.50;;;;;;;-1.54;71.70;98995.55;25130;1315;3026912;-71
2022/02/04 10:34:13;;;;;;;38.10;16.90;;;;;;;-1.55;71.51;98999.17;24832;1313;3052060;-68
2022/02/04 10:36:54;;;;;;;39.10;15.30;;;;;;;-1.79;72.28;98991.02;25187;1315;3053450;-70
2022/02/04 10:42:08;;;;;;;28.30;13.20;;;;;;;-2.02;73.31;98994.87;25184;1311;3051936;-72
2022/02/04 10:44:52;;;;;;;34.80;15.50;;;;;;;-2.15;73.84;98998.17;25220;1315;3052852;-69
2022/02/04 10:47:57;;;;;;;32.90;15.50;;;;;;;-2.18;74.13;98992.56;25176;1315;3052564;-68
2022/02/04 11:07:24;;;;;;;25.80;13.80;;;;;;;-1.35;71.02;98988.15;25172;1313;3051666;-70
2022/02/04 11:35:11;;;;;;;29.40;13.40;;;;;;;-2.07;74.03;98983.45;25132;1315;3051723;-70
2022/02/04 11:52:46;;;;;;;34.30;16.00;;;;;;;-1.53;71.21;98992.27;25154;1315;3053596;-69
2022/02/04 11:55:11;;;;;;;32.50;15.20;;;;;;;-1.63;71.45;98997.95;25114;1315;3058819;-72
2022/02/04 11:58:04;;;;;;;24.70;11.60;;;;;;;-1.60;71.29;98997.40;25163;1312;3027596;-69
2022/02/04 12:00:39;;;;;;;24.90;11.70;;;;;;;-1.87;72.29;98999.77;25126;1312;3054549;-72
2022/02/04 12:03:36;;;;;;;30.90;14.60;;;;;;;-1.83;72.23;98996.77;25116;1315;3056679;-72
2022/02/04 12:06:05;;;;;;;33.50;15.90;;;;;;;-1.75;72.32;98995.25;25137;1312;3050548;-69
2022/02/04 12:08:35;;;;;;;29.40;14.20;;;;;;;-1.59;71.95;98999.44;25158;1315;3026568;-73
2022/02/04 12:11:07;;;;;;;31.60;14.00;;;;;;;-1.65;71.79;98995.76;25184;1312;3026801;-71
2022/02/04 12:14:10;;;;;;;35.40;15.10;;;;;;;-1.77;72.06;98996.67;25122;1312;3049319;-69
2022/02/04 12:17:03;;;;;;;31.90;14.20;;;;;;;-1.75;72.08;98996.29;25129;1312;3052693;-68
2022/02/04 12:19:39;;;;;;;32.40;15.60;;;;;;;-1.77;72.02;98997.70;25165;1312;3051191;-69
2022/02/04 12:22:08;;;;;;;35.50;16.10;;;;;;;-1.62;71.98;98998.27;25154;1312;3071606;-70
2022/02/04 12:24:39;;;;;;;37.80;18.00;;;;;;;-1.49;71.35;98998.89;25119;1313;3026338;-67
2022/02/04 12:27:28;;;;;;;28.80;13.60;;;;;;;-1.57;71.21;98994.23;25178;1313;3026505;-69
2022/02/04 12:30:36;;;;;;;24.50;12.60;;;;;;;-1.61;71.24;98997.40;25168;1315;3054342;-69
2022/02/04 12:33:05;;;;;;;33.50;15.90;;;;;;;-1.73;71.81;98999.34;25104;1312;3058900;-69
2022/02/04 12:35:35;;;;;;;37.00;16.30;;;;;;;-1.61;71.62;99003.92;25145;1312;3026880;-71
2022/02/04 12:38:04;;;;;;;33.60;14.80;;;;;;;-1.41;70.62;99005.27;25193;1313;3051503;-71
2022/02/04 12:40:33;;;;;;;33.30;16.60;;;;;;;-1.67;71.53;99009.35;25127;1313;3026381;-71
2022/02/04 12:43:02;;;;;;;24.90;12.80;;;;;;;-1.61;71.53;99005.82;25119;1313;3054739;-69
2022/02/04 12:45:34;;;;;;;27.40;13.20;;;;;;;-1.80;71.89;99008.38;25156;1313;3026627;-67
2022/02/04 12:48:06;;;;;;;31.20;13.70;;;;;;;-1.81;71.88;99010.65;25123;1313;3026398;-68
2022/02/04 12:50:37;;;;;;;33.10;16.80;;;;;;;-1.73;71.86;99011.52;25203;1313;3026181;-67
2022/02/04 12:53:08;;;;;;;30.10;14.50;;;;;;;-1.62;71.51;99017.70;25210;1315;3026256;-69
2022/02/04 12:55:59;;;;;;;31.60;15.70;;;;;;;-1.89;71.78;99021.58;25153;1313;3027086;-67
2022/02/04 12:58:43;;;;;;;28.90;14.40;;;;;;;-1.85;71.95;99023.24;25179;1316;3070937;-70
2022/02/04 13:09:51;;;;;;;19.50;10.70;;;;;;;-1.78;72.09;99031.72;25111;1315;3057071;-65
2022/02/04 13:12:20;;;;;;;25.90;13.40;;;;;;;-1.15;70.36;99034.15;25152;1313;3049668;-71
2022/02/04 13:14:49;;;;;;;25.80;12.10;;;;;;;-0.94;69.06;99027.21;25154;1313;3026961;-68
2022/02/04 13:17:32;;;;;;;23.60;11.70;;;;;;;-0.74;68.53;99025.39;25194;1313;3056064;-70
2022/02/04 13:20:01;;;;;;;26.20;12.20;;;;;;;-0.85;67.86;99025.63;25180;1313;3048969;-69
2022/02/04 13:22:30;;;;;;;28.80;15.30;;;;;;;-1.30;69.23;99034.77;25183;1315;3026455;-71
2022/02/04 13:25:19;;;;;;;22.10;10.60;;;;;;;-1.35;69.72;99034.89;25231;1313;3028291;-70
2022/02/04 13:28:08;;;;;;;20.70;10.90;;;;;;;-1.48;69.66;99032.90;25186;1313;3048733;-68
2022/02/04 13:30:41;;;;;;;25.80;12.10;;;;;;;-1.65;70.09;99037.83;25156;1315;3056023;-71
2022/02/04 13:33:21;;;;;;;25.50;12.20;;;;;;;-1.73;70.10;99031.27;25094;1315;3026585;-69
2022/02/04 13:36:52;;;;;;;25.60;12.60;;;;;;;-1.83;70.11;99045.55;25162;1313;3069170;-69
2022/02/04 13:47:15;;;;;;;27.40;13.60;;;;;;;-2.05;70.22;99049.31;25144;1313;3058899;-71
2022/02/04 13:53:10;;;;;;;28.20;12.10;;;;;;;-2.18;70.73;99047.79;25164;1314;3053882;-68
2022/02/04 14:01:12;;;;;;;24.60;12.30;;;;;;;-2.37;70.95;99054.27;25129;1315;3051780;-71
2022/02/04 14:03:46;;;;;;;28.30;13.60;;;;;;;-2.32;70.75;99052.14;25164;1315;3051994;-68
2022/02/04 14:06:19;;;;;;;28.60;14.40;;;;;;;-2.50;71.25;99050.68;25167;1313;3052067;-71
2022/02/04 14:11:33;;;;;;;26.00;11.20;;;;;;;-2.47;71.05;99057.48;25199;1315;3026581;-70
2022/02/04 14:14:04;;;;;;;27.10;12.70;;;;;;;-2.51;71.51;99057.38;25242;1313;3055584;-70
2022/02/04 14:16:34;;;;;;;20.70;12.10;;;;;;;-2.53;71.65;99055.02;25227;1315;3026183;-72
2022/02/04 14:19:04;;;;;;;23.50;12.40;;;;;;;-2.48;71.36;99053.73;25192;1313;3027376;-67
2022/02/04 14:21:33;;;;;;;27.10;14.20;;;;;;;-2.41;71.10;99058.62;25345;1315;3026147;-73
2022/02/04 14:24:09;;;;;;;28.80;12.90;;;;;;;-2.49;71.19;99055.81;25255;1315;3028880;-68
2022/02/04 14:26:44;;;;;;;21.20;11.80;;;;;;;-2.53;71.16;99064.27;25157;1315;3052450;-68
2022/02/04 14:29:25;;;;;;;22.20;11.90;;;;;;;-2.60;71.58;99072.09;25078;1313;3056881;-71
2022/02/04 14:53:28;;;;;;;24.30;12.90;;;;;;;-2.82;70.13;99097.05;25146;1315;3053719;-67
2022/02/04 15:01:47;;;;;;;20.80;10.00;;;;;;;-2.79;70.00;99092.38;25063;1315;3052543;-70
2022/02/04 15:04:26;;;;;;;24.00;9.90;;;;;;;-2.85;70.46;99095.88;25117;1315;3052587;-69
2022/02/04 15:07:00;;;;;;;23.00;10.90;;;;;;;-2.96;70.70;99103.91;25117;1313;3056654;-68
2022/02/04 15:09:30;;;;;;;28.20;12.40;;;;;;;-2.92;70.85;99105.73;25180;1313;3048187;-65
2022/02/04 15:11:59;;;;;;;27.80;13.60;;;;;;;-2.82;70.34;99101.16;25152;1315;3026503;-69
2022/02/04 15:14:45;;;;;;;36.00;14.90;;;;;;;-2.89;70.88;99110.51;25133;1313;3054670;-68
2022/02/04 15:17:14;;;;;;;43.60;17.60;;;;;;;-2.82;70.96;99116.77;25154;1314;3026526;-71
2022/02/04 15:19:45;;;;;;;18.20;8.20;;;;;;;-2.76;71.60;99125.59;25158;1315;3055773;-68
2022/02/04 15:22:14;;;;;;;24.10;11.20;;;;;;;-2.06;69.88;99130.00;25133;1313;3027230;-67
2022/02/04 15:24:43;;;;;;;27.80;12.30;;;;;;;-1.61;68.50;99117.97;25141;1312;3027051;-67
2022/02/04 15:27:12;;;;;;;25.10;11.10;;;;;;;-1.55;67.61;99117.02;25167;1313;3026696;-68
2022/02/04 15:29:45;;;;;;;38.10;14.00;;;;;;;-1.60;67.28;99134.61;25175;1315;3051023;-69
2022/02/04 15:32:14;;;;;;;29.50;13.30;;;;;;;-1.91;68.26;99139.73;25117;1313;3026336;-69
2022/02/04 15:34:43;;;;;;;25.50;11.00;;;;;;;-2.09;68.82;99151.52;25133;1312;3026352;-69
2022/02/04 15:37:12;;;;;;;30.90;13.60;;;;;;;-2.28;69.81;99150.73;25171;1315;3051252;-69
2022/02/04 15:39:41;;;;;;;29.90;12.30;;;;;;;-2.13;69.03;99149.33;25172;1312;3026534;-68
2022/02/04 15:42:13;;;;;;;27.70;13.30;;;;;;;-2.40;69.93;99159.13;25151;1312;3054973;-71
2022/02/04 15:44:57;;;;;;;26.20;12.60;;;;;;;-2.61;70.76;99172.07;25147;1312;3028767;-66
2022/02/04 15:47:49;;;;;;;;;;;;;;;-2.69;71.13;99171.48;25171;1312;3073433;-68
2022/02/04 15:50:31;;;;;;;22.40;10.90;;;;;;;-2.66;70.92;99174.19;25118;1312;3049232;-71
2022/02/04 15:56:29;;;;;;;26.20;11.50;;;;;;;-2.73;71.03;99175.97;25155;1312;3053992;-69
2022/02/04 15:58:57;;;;;;;30.40;12.80;;;;;;;-2.71;71.20;99178.36;25097;1313;3058529;-71
2022/02/04 16:06:25;;;;;;;33.30;14.20;;;;;;;-2.85;71.71;99188.98;25165;1312;3057247;-68
2022/02/04 16:08:56;;;;;;;36.20;15.40;;;;;;;-2.85;71.14;99179.36;25108;1313;3026416;-71
2022/02/04 16:19:39;;;;;;;36.70;17.10;;;;;;;-2.78;71.51;99191.80;25106;1314;3026570;-68
2022/02/04 16:22:18;;;;;;;39.30;16.30;;;;;;;-2.79;71.81;99199.36;25179;1312;3051430;-69
2022/02/04 16:25:10;;;;;;;36.90;15.90;;;;;;;-2.74;71.57;99198.96;25123;1312;3051437;-66
2022/02/04 16:30:11;;;;;;;34.10;14.30;;;;;;;-1.99;69.90;99205.60;25150;1312;3026591;-72
2022/02/04 16:32:40;;;;;;;35.10;14.10;;;;;;;-1.34;67.86;99197.59;25187;1312;3052218;-71
2022/02/04 16:35:09;;;;;;;34.00;13.90;;;;;;;-1.36;66.98;99198.13;25177;1312;3026882;-72
2022/02/04 16:37:39;;;;;;;31.70;14.70;;;;;;;-1.64;66.96;99204.92;25185;1313;3055204;-70
2022/02/04 16:40:13;;;;;;;39.20;16.20;;;;;;;-1.79;67.54;99205.65;25191;1312;3028291;-71
2022/02/04 16:42:44;;;;;;;33.20;15.30;;;;;;;-1.98;67.93;99211.77;25181;1312;3056124;-71
2022/02/04 16:45:12;;;;;;;40.70;17.10;;;;;;;-2.12;67.96;99210.42;25197;1312;3026368;-71
2022/02/04 16:47:41;;;;;;;35.40;14.00;;;;;;;-2.11;68.21;99210.92;25149;1312;3053476;-69
2022/02/04 16:50:10;;;;;;;42.70;15.40;;;;;;;-2.29;68.72;99209.08;25138;1315;3026479;-67
2022/02/04 16:52:39;;;;;;;39.70;16.80;;;;;;;-2.26;68.68;99209.56;25151;1315;3054549;-68
2022/02/04 16:55:08;;;;;;;39.10;15.40;;;;;;;-2.32;68.65;99205.69;25168;1315;3026473;-68
2022/02/04 16:57:40;;;;;;;47.70;18.10;;;;;;;-2.43;68.65;99210.61;25166;1315;3048040;-69
2022/02/04 17:00:24;;;;;;;36.00;15.60;;;;;;;-2.32;68.72;99209.30;25173;1315;3027411;-68
2022/02/04 17:02:56;;;;;;;;;;;;;;;-2.48;68.69;99209.83;25132;1315;3052504;-71
2022/02/04 17:05:33;;;;;;;27.90;11.70;;;;;;;-2.64;69.38;99217.38;25193;1313;3026332;-70
2022/02/04 17:08:07;;;;;;;34.80;12.30;;;;;;;-2.53;69.21;99209.88;25253;1308;3052929;-67
2022/02/04 17:10:41;;;;;;;34.20;13.30;;;;;;;-2.66;69.49;99216.38;25203;1308;3052913;-67
2022/02/04 17:13:11;;;;;;;32.70;12.50;;;;;;;-2.62;69.72;99221.30;25249;1307;3026530;-69
2022/02/04 17:15:40;;;;;;;28.10;11.70;;;;;;;-2.54;69.06;99219.67;25182;1309;3026488;-72
2022/02/04 17:18:09;;;;;;;33.30;12.30;;;;;;;-2.67;69.79;99225.82;25212;1306;3026690;-68
2022/02/04 17:20:40;;;;;;;25.50;12.00;;;;;;;-2.79;70.11;99232.80;25201;1306;3054108;-71
2022/02/04 17:23:12;;;;;;;22.70;9.10;;;;;;;-2.76;70.15;99227.10;25278;1307;3028998;-67
2022/02/04 17:25:44;;;;;;;34.80;13.00;;;;;;;-2.66;69.52;99229.92;25227;1309;3026092;-71
2022/02/04 17:28:13;;;;;;;30.30;13.70;;;;;;;-2.71;69.66;99224.48;25188;1308;3026932;-68
2022/02/04 17:30:42;;;;;;;25.60;12.60;;;;;;;-2.67;69.60;99227.87;25193;1307;3026758;-68
2022/02/04 17:33:11;;;;;;;25.40;12.10;;;;;;;-2.70;69.30;99226.35;25240;1307;3048611;-68
2022/02/04 17:35:40;;;;;;;27.10;12.20;;;;;;;-2.85;70.30;99227.55;25241;1307;3026544;-71
2022/02/04 17:38:11;;;;;;;31.00;12.60;;;;;;;-2.64;69.37;99229.21;25184;1309;3070997;-71
2022/02/04 17:40:40;;;;;;;27.70;13.80;;;;;;;-2.72;69.63;99230.30;25257;1307;3026226;-70
2022/02/04 17:43:10;;;;;;;27.10;13.10;;;;;;;-2.62;69.60;99227.65;25245;1309;3028648;-69
2022/02/04 17:45:40;;;;;;;21.60;10.70;;;;;;;-2.72;70.11;99231.19;25256;1307;3068296;-69
2022/02/04 17:48:19;;;;;;;26.70;11.90;;;;;;;-2.79;70.44;99234.00;25223;1306;3027047;-71